createdAt,value
2023-04-09T00:02:06.756Z,7.19
2023-04-09T00:04:33.947Z,7.15
2023-04-09T00:07:01.332Z,7.16
2023-04-09T00:09:28.351Z,7.11
2023-04-09T00:11:56.669Z,6.98
2023-04-09T00:14:23.652Z,7.05
2023-04-09T00:16:50.690Z,7.01
2023-04-09T00:19:17.781Z,6.98
2023-04-09T00:21:44.731Z,6.96
2023-04-09T00:24:11.845Z,6.93
2023-04-09T00:26:38.922Z,6.91
2023-04-09T00:29:06.321Z,6.85
2023-04-09T00:31:33.716Z,6.84
2023-04-09T00:34:01.472Z,6.82
2023-04-09T00:36:28.407Z,6.78
2023-04-09T00:38:55.767Z,6.71
2023-04-09T00:41:22.631Z,6.65
2023-04-09T00:43:49.593Z,6.60
2023-04-09T00:46:18.055Z,6.57
2023-04-09T00:48:45.758Z,6.62
2023-04-09T00:51:12.900Z,6.47
2023-04-09T00:53:39.930Z,6.66
2023-04-09T00:56:07.221Z,6.62
2023-04-09T00:58:36.303Z,6.57
2023-04-09T01:01:03.625Z,6.49
2023-04-09T01:03:30.771Z,6.37
2023-04-09T01:06:06.365Z,6.39
2023-04-09T01:08:43.549Z,6.34
2023-04-09T01:11:21.274Z,6.29
2023-04-09T01:13:51.770Z,6.28
2023-04-09T01:16:19.594Z,6.24
2023-04-09T01:18:51.655Z,6.22
2023-04-09T01:21:20.914Z,6.19
2023-04-09T01:23:56.287Z,6.15
2023-04-09T01:26:42.498Z,6.07
2023-04-09T01:29:11.209Z,6.10
2023-04-09T01:31:39.326Z,6.09
2023-04-09T01:34:08.171Z,6.03
2023-04-09T01:36:35.988Z,6.00
2023-04-09T01:39:03.503Z,5.92
2023-04-09T01:41:32.294Z,5.87
2023-04-09T01:44:02.010Z,5.85
2023-04-09T01:46:29.925Z,5.72
2023-04-09T01:48:57.643Z,5.79
2023-04-09T01:51:24.625Z,5.77
2023-04-09T01:53:51.604Z,5.77
2023-04-09T01:56:18.702Z,5.75
2023-04-09T01:58:46.107Z,5.75
2023-04-09T02:01:14.785Z,5.83
2023-04-09T02:03:46.741Z,5.83
2023-04-09T02:06:28.826Z,5.85
2023-04-09T02:08:58.852Z,5.80
2023-04-09T02:11:27.041Z,5.76
2023-04-09T02:13:54.761Z,5.72
2023-04-09T02:16:22.123Z,5.72
2023-04-09T02:18:54.445Z,5.70
2023-04-09T02:21:22.449Z,5.73
2023-04-09T02:23:49.631Z,5.71
2023-04-09T02:26:16.682Z,5.70
2023-04-09T02:28:43.719Z,5.72
2023-04-09T02:31:11.614Z,5.66
2023-04-09T02:33:38.707Z,5.63
2023-04-09T02:36:06.260Z,5.69
2023-04-09T02:38:33.435Z,5.70
2023-04-09T02:41:00.722Z,5.71
2023-04-09T02:43:27.722Z,5.71
2023-04-09T02:45:54.776Z,5.72
2023-04-09T02:48:21.977Z,5.72
2023-04-09T02:50:49.130Z,5.72
2023-04-09T02:53:16.142Z,5.70
2023-04-09T02:55:43.310Z,5.68
2023-04-09T02:58:10.280Z,5.65
2023-04-09T03:00:37.197Z,5.68
2023-04-09T03:03:04.857Z,5.60
2023-04-09T03:05:31.830Z,5.54
2023-04-09T03:07:58.734Z,5.52
2023-04-09T03:10:25.756Z,5.53
2023-04-09T03:12:52.947Z,5.60
2023-04-09T03:15:20.032Z,5.55
2023-04-09T03:17:47.168Z,5.58
2023-04-09T03:20:14.204Z,5.49
2023-04-09T03:22:41.251Z,5.43
2023-04-09T03:25:21.094Z,5.37
2023-04-09T03:27:51.895Z,5.44
2023-04-09T03:30:27.133Z,5.47
2023-04-09T03:32:55.255Z,5.49
2023-04-09T03:35:24.234Z,5.42
2023-04-09T03:37:57.392Z,5.37
2023-04-09T03:40:24.595Z,5.38
2023-04-09T03:42:51.587Z,5.36
2023-04-09T03:45:19.082Z,5.31
2023-04-09T03:47:48.679Z,5.28
2023-04-09T03:50:16.626Z,5.30
2023-04-09T03:52:52.826Z,5.26
2023-04-09T03:55:20.019Z,5.31
2023-04-09T03:57:48.549Z,5.29
2023-04-09T04:00:18.406Z,5.27
2023-04-09T04:02:51.773Z,5.28
2023-04-09T04:05:31.456Z,5.21
2023-04-09T04:08:01.370Z,5.17
2023-04-09T04:10:29.631Z,5.13
2023-04-09T04:12:56.742Z,5.12
2023-04-09T04:15:46.629Z,5.13
2023-04-09T04:18:14.620Z,5.11
2023-04-09T04:20:48.546Z,5.19
2023-04-09T04:23:15.574Z,5.20
2023-04-09T04:25:58.799Z,5.23
2023-04-09T04:28:36.930Z,5.21
2023-04-09T04:31:11.530Z,5.26
2023-04-09T04:33:40.180Z,5.29
2023-04-09T04:36:12.368Z,5.23
2023-04-09T04:38:43.049Z,5.24
2023-04-09T04:41:22.524Z,5.22
2023-04-09T04:44:02.498Z,5.27
2023-04-09T04:46:29.543Z,5.30
2023-04-09T04:48:58.883Z,5.29
2023-04-09T04:51:27.859Z,5.31
2023-04-09T04:54:05.056Z,5.29
2023-04-09T04:56:32.264Z,5.29
2023-04-09T04:59:04.611Z,5.31
2023-04-09T05:01:43.956Z,5.35
2023-04-09T05:04:13.175Z,5.32
2023-04-09T05:06:40.241Z,5.34
2023-04-09T05:09:11.730Z,5.37
2023-04-09T05:11:46.594Z,5.38
2023-04-09T05:14:18.744Z,5.34
2023-04-09T05:16:46.043Z,5.33
2023-04-09T05:19:13.645Z,5.34
2023-04-09T05:21:40.662Z,5.32
2023-04-09T05:24:29.212Z,5.31
2023-04-09T05:26:56.393Z,5.28
2023-04-09T05:29:23.914Z,5.34
2023-04-09T05:31:51.303Z,5.38
2023-04-09T05:34:29.523Z,5.32
2023-04-09T05:36:57.379Z,5.31
2023-04-09T05:39:25.684Z,5.29
2023-04-09T05:42:02.019Z,5.21
2023-04-09T05:44:33.819Z,5.23
2023-04-09T05:47:09.439Z,5.26
2023-04-09T05:49:45.087Z,5.26
2023-04-09T05:52:16.332Z,5.34
2023-04-09T05:54:43.390Z,5.37
2023-04-09T05:57:13.388Z,5.43
2023-04-09T05:59:43.964Z,5.48
2023-04-09T06:02:11.168Z,5.51
2023-04-09T06:04:38.628Z,5.55
2023-04-09T06:07:05.872Z,5.64
2023-04-09T06:09:32.880Z,5.69
2023-04-09T06:12:02.810Z,5.75
2023-04-09T06:14:30.157Z,5.83
2023-04-09T06:16:58.931Z,5.89
2023-04-09T06:19:26.345Z,5.94
2023-04-09T06:21:53.353Z,6.02
2023-04-09T06:24:20.347Z,6.11
2023-04-09T06:26:47.473Z,6.18
2023-04-09T06:29:14.700Z,6.27
2023-04-09T06:31:42.221Z,6.35
2023-04-09T06:34:09.342Z,6.42
2023-04-09T06:36:37.881Z,6.54
2023-04-09T06:39:04.945Z,6.65
2023-04-09T06:41:32.716Z,6.75
2023-04-09T06:43:59.992Z,6.91
2023-04-09T06:46:26.985Z,7.01
2023-04-09T06:48:54.193Z,7.09
2023-04-09T06:51:21.131Z,7.20
2023-04-09T06:53:48.475Z,7.28
2023-04-09T06:56:15.899Z,7.36
2023-04-09T06:58:42.944Z,7.38
2023-04-09T07:01:10.214Z,7.40
2023-04-09T07:03:37.360Z,7.43
2023-04-09T07:06:04.433Z,7.47
2023-04-09T07:08:31.562Z,7.49
2023-04-09T07:10:58.622Z,7.53
2023-04-09T07:13:25.690Z,7.57
2023-04-09T07:15:52.612Z,7.60
2023-04-09T07:18:20.278Z,7.62
2023-04-09T07:20:47.365Z,7.71
2023-04-09T07:23:15.013Z,7.82
2023-04-09T07:25:42.613Z,7.98
2023-04-09T07:28:09.907Z,8.09
2023-04-09T07:30:36.990Z,8.13
2023-04-09T07:33:04.051Z,8.18
2023-04-09T07:35:32.335Z,8.21
2023-04-09T07:37:59.391Z,8.25
2023-04-09T07:40:26.546Z,8.36
2023-04-09T07:42:54.273Z,8.57
2023-04-09T07:45:21.317Z,8.73
2023-04-09T07:47:48.481Z,8.90
2023-04-09T07:50:16.078Z,9.17
2023-04-09T07:52:43.373Z,9.32
2023-04-09T07:55:10.402Z,9.47
2023-04-09T07:57:37.784Z,9.61
2023-04-09T08:00:05.523Z,9.84
2023-04-09T08:02:40.112Z,9.99
2023-04-09T08:05:08.160Z,10.20
2023-04-09T08:07:35.401Z,10.43
2023-04-09T08:10:02.714Z,10.74
2023-04-09T08:12:30.522Z,10.97
2023-04-09T08:14:57.715Z,11.17
2023-04-09T08:17:24.896Z,11.34
2023-04-09T08:19:52.061Z,11.56
2023-04-09T08:22:18.965Z,11.74
2023-04-09T08:24:51.090Z,11.96
2023-04-09T08:27:18.305Z,12.18
2023-04-09T08:29:45.376Z,12.44
2023-04-09T08:32:13.027Z,12.68
2023-04-09T08:34:40.075Z,12.88
2023-04-09T08:37:07.278Z,13.05
2023-04-09T08:39:34.541Z,13.23
2023-04-09T08:42:02.204Z,13.33
2023-04-09T08:44:30.487Z,13.40
2023-04-09T08:46:59.627Z,13.51
2023-04-09T08:49:26.817Z,13.47
2023-04-09T08:51:53.729Z,13.58
2023-04-09T08:54:20.781Z,13.83
2023-04-09T08:56:47.811Z,14.05
2023-04-09T08:59:18.799Z,14.21
2023-04-09T09:01:48.167Z,14.35
2023-04-09T09:04:15.313Z,14.44
2023-04-09T09:06:42.340Z,14.60
2023-04-09T09:09:13.234Z,14.78
2023-04-09T09:11:45.047Z,14.97
2023-04-09T09:14:18.367Z,15.17
2023-04-09T09:17:06.458Z,15.23
2023-04-09T09:19:35.811Z,15.35
2023-04-09T09:22:06.855Z,15.40
2023-04-09T09:24:36.672Z,15.49
2023-04-09T09:27:03.748Z,15.70
2023-04-09T09:29:30.692Z,15.80
2023-04-09T09:31:57.905Z,15.88
2023-04-09T09:34:25.546Z,16.07
2023-04-09T09:36:53.927Z,16.20
2023-04-09T09:39:22.404Z,16.29
2023-04-09T09:42:06.862Z,16.47
2023-04-09T09:44:34.087Z,16.46
2023-04-09T09:47:01.081Z,16.49
2023-04-09T09:49:28.520Z,16.67
2023-04-09T09:51:57.976Z,16.93
2023-04-09T09:54:26.003Z,17.04
2023-04-09T09:56:56.097Z,17.20
2023-04-09T09:59:27.207Z,17.31
2023-04-09T10:01:59.075Z,17.58
2023-04-09T10:04:28.842Z,17.68
2023-04-09T10:06:57.086Z,18.03
2023-04-09T10:09:28.824Z,18.02
2023-04-09T10:11:58.347Z,18.08
2023-04-09T10:14:26.707Z,18.19
2023-04-09T10:16:57.771Z,18.24
2023-04-09T10:19:26.604Z,18.39
2023-04-09T10:22:00.527Z,18.55
2023-04-09T10:24:27.606Z,18.60
2023-04-09T10:26:55.141Z,18.63
2023-04-09T10:29:28.388Z,18.76
2023-04-09T10:32:08.914Z,18.80
2023-04-09T10:34:41.231Z,18.87
2023-04-09T10:37:15.800Z,19.08
2023-04-09T10:39:47.585Z,19.21
2023-04-09T10:42:27.529Z,19.30
2023-04-09T10:45:14.724Z,19.37
2023-04-09T10:47:44.917Z,19.51
2023-04-09T10:50:20.129Z,19.60
2023-04-09T10:52:48.040Z,19.76
2023-04-09T10:55:34.679Z,19.82
2023-04-09T10:58:11.891Z,20.01
2023-04-09T11:00:41.012Z,20.10
2023-04-09T11:03:21.994Z,20.21
2023-04-09T11:05:54.223Z,20.24
2023-04-09T11:08:22.454Z,20.41
2023-04-09T11:10:53.811Z,20.49
2023-04-09T11:13:22.060Z,20.53
2023-04-09T11:15:49.057Z,20.70
2023-04-09T11:18:21.291Z,20.91
2023-04-09T11:20:48.806Z,20.97
2023-04-09T11:23:16.306Z,20.92
2023-04-09T11:25:43.412Z,20.95
2023-04-09T11:28:10.399Z,20.84
2023-04-09T11:30:37.769Z,20.85
2023-04-09T11:33:04.814Z,20.74
2023-04-09T11:35:35.053Z,20.86
2023-04-09T11:38:06.475Z,21.08
2023-04-09T11:40:33.514Z,21.10
2023-04-09T11:43:01.229Z,21.16
2023-04-09T11:45:29.249Z,21.19
2023-04-09T11:47:56.944Z,21.24
2023-04-09T11:50:24.021Z,21.25
2023-04-09T11:52:51.205Z,21.47
2023-04-09T11:55:25.538Z,21.49
2023-04-09T11:57:53.742Z,21.52
2023-04-09T12:00:20.929Z,21.55
2023-04-09T12:02:49.263Z,21.65
2023-04-09T12:05:29.720Z,21.75
2023-04-09T12:08:05.204Z,21.79
2023-04-09T12:10:33.456Z,21.84
2023-04-09T12:13:13.898Z,21.64
2023-04-09T12:15:43.721Z,21.89
2023-04-09T12:18:14.447Z,21.79
2023-04-09T12:20:45.252Z,21.88
2023-04-09T12:23:13.205Z,21.98
2023-04-09T12:25:42.276Z,21.87
2023-04-09T12:28:10.296Z,21.84
2023-04-09T12:30:37.358Z,22.05
2023-04-09T12:33:04.930Z,22.39
2023-04-09T12:35:34.852Z,22.39
2023-04-09T12:38:02.941Z,22.55
2023-04-09T12:40:32.457Z,22.61
2023-04-09T12:43:00.522Z,22.48
2023-04-09T12:45:28.236Z,22.43
2023-04-09T12:47:55.330Z,22.50
2023-04-09T12:50:22.466Z,22.61
2023-04-09T12:52:49.434Z,22.57
2023-04-09T12:55:17.000Z,22.56
2023-04-09T12:57:45.003Z,22.36
2023-04-09T13:00:12.501Z,22.44
2023-04-09T13:02:39.926Z,22.40
2023-04-09T13:05:07.567Z,22.30
2023-04-09T13:07:34.570Z,22.62
2023-04-09T13:10:01.710Z,22.77
2023-04-09T13:12:28.808Z,22.94
2023-04-09T13:14:55.886Z,23.01
2023-04-09T13:17:25.821Z,22.96
2023-04-09T13:19:53.074Z,22.92
2023-04-09T13:22:20.077Z,22.91
2023-04-09T13:24:48.452Z,22.96
2023-04-09T13:27:17.557Z,22.92
2023-04-09T13:29:49.083Z,22.92
2023-04-09T13:32:18.485Z,22.90
2023-04-09T13:34:45.499Z,22.87
2023-04-09T13:37:13.548Z,22.98
2023-04-09T13:39:40.894Z,23.12
2023-04-09T13:42:13.746Z,23.13
2023-04-09T13:44:46.178Z,23.24
2023-04-09T13:47:14.531Z,23.22
2023-04-09T13:49:43.729Z,23.38
2023-04-09T13:52:13.058Z,23.43
2023-04-09T13:54:43.039Z,23.66
2023-04-09T13:57:11.281Z,23.80
2023-04-09T13:59:43.123Z,23.66
2023-04-09T14:02:11.765Z,23.62
2023-04-09T14:04:39.187Z,23.64
2023-04-09T14:07:06.580Z,23.76
2023-04-09T14:09:33.541Z,23.72
2023-04-09T14:12:01.693Z,23.67
2023-04-09T14:14:28.725Z,23.73
2023-04-09T14:16:55.623Z,23.68
2023-04-09T14:19:23.238Z,23.70
2023-04-09T14:21:53.470Z,23.75
2023-04-09T14:24:23.173Z,23.81
2023-04-09T14:26:51.705Z,23.78
2023-04-09T14:29:18.922Z,23.79
2023-04-09T14:31:47.652Z,23.88
2023-04-09T14:34:14.761Z,24.03
2023-04-09T14:36:41.747Z,23.94
2023-04-09T14:39:09.304Z,24.01
2023-04-09T14:41:36.801Z,23.93
2023-04-09T14:44:03.814Z,23.88
2023-04-09T14:46:31.058Z,24.05
2023-04-09T14:49:01.260Z,23.94
2023-04-09T14:51:30.638Z,23.79
2023-04-09T14:53:58.175Z,23.77
2023-04-09T14:56:28.085Z,23.86
2023-04-09T14:58:56.138Z,23.66
2023-04-09T15:01:23.457Z,23.77
2023-04-09T15:03:50.816Z,23.79
2023-04-09T15:06:17.948Z,23.79
2023-04-09T15:08:45.820Z,23.83
2023-04-09T15:11:19.590Z,23.88
2023-04-09T15:13:50.311Z,23.80
2023-04-09T15:16:22.031Z,23.61
2023-04-09T15:18:52.516Z,23.54
2023-04-09T15:21:19.784Z,23.51
2023-04-09T15:23:46.943Z,23.50
2023-04-09T15:26:13.887Z,23.47
2023-04-09T15:28:40.981Z,23.44
2023-04-09T15:31:07.935Z,23.51
2023-04-09T15:33:34.877Z,23.41
2023-04-09T15:36:01.967Z,23.35
2023-04-09T15:38:29.373Z,23.19
2023-04-09T15:40:57.116Z,23.22
2023-04-09T15:43:24.219Z,23.12
2023-04-09T15:45:51.633Z,23.16
2023-04-09T15:48:19.515Z,23.08
2023-04-09T15:50:46.926Z,23.01
2023-04-09T15:53:14.586Z,23.00
2023-04-09T15:55:41.738Z,22.90
2023-04-09T15:58:08.781Z,22.72
2023-04-09T16:00:36.321Z,22.67
2023-04-09T16:03:03.593Z,22.51
2023-04-09T16:05:30.694Z,22.43
2023-04-09T16:07:59.944Z,22.39
2023-04-09T16:10:30.778Z,22.36
2023-04-09T16:13:00.870Z,22.34
2023-04-09T16:15:27.879Z,22.25
2023-04-09T16:17:54.917Z,22.21
2023-04-09T16:20:21.972Z,22.19
2023-04-09T16:22:48.881Z,22.18
2023-04-09T16:25:15.962Z,22.12
2023-04-09T16:27:42.850Z,22.13
2023-04-09T16:30:10.091Z,22.08
2023-04-09T16:32:37.266Z,22.06
2023-04-09T16:35:04.336Z,21.98
2023-04-09T16:37:31.430Z,21.92
2023-04-09T16:39:59.169Z,21.91
2023-04-09T16:42:27.619Z,21.82
2023-04-09T16:44:54.640Z,21.79
2023-04-09T16:47:21.722Z,21.75
2023-04-09T16:49:48.756Z,21.69
2023-04-09T16:52:15.875Z,21.68
2023-04-09T16:54:42.821Z,21.60
2023-04-09T16:57:13.154Z,21.55
2023-04-09T16:59:42.711Z,21.54
2023-04-09T17:02:09.648Z,21.50
2023-04-09T17:04:38.379Z,21.64
2023-04-09T17:07:05.304Z,21.50
2023-04-09T17:09:32.279Z,21.49
2023-04-09T17:11:59.459Z,21.40
2023-04-09T17:14:26.591Z,21.34
2023-04-09T17:16:54.089Z,21.26
2023-04-09T17:19:21.231Z,21.24
2023-04-09T17:21:48.375Z,21.36
2023-04-09T17:24:15.667Z,21.23
2023-04-09T17:26:42.934Z,21.17
2023-04-09T17:29:09.929Z,21.02
2023-04-09T17:31:36.919Z,20.95
2023-04-09T17:34:04.117Z,20.82
2023-04-09T17:36:32.052Z,20.75
2023-04-09T17:38:59.055Z,20.58
2023-04-09T17:41:26.367Z,20.49
2023-04-09T17:43:53.918Z,20.32
2023-04-09T17:46:21.055Z,20.16
2023-04-09T17:48:50.088Z,20.05
2023-04-09T17:51:19.474Z,19.91
2023-04-09T17:53:47.590Z,19.79
2023-04-09T17:56:18.076Z,19.69
2023-04-09T17:58:45.290Z,19.72
2023-04-09T18:01:15.796Z,19.62
2023-04-09T18:03:43.268Z,19.39
2023-04-09T18:06:10.389Z,19.27
2023-04-09T18:08:37.741Z,19.13
2023-04-09T18:11:12.664Z,19.00
2023-04-09T18:13:40.694Z,18.88
2023-04-09T18:16:12.411Z,18.71
2023-04-09T18:18:39.708Z,18.68
2023-04-09T18:21:06.866Z,18.60
2023-04-09T18:23:34.118Z,18.47
2023-04-09T18:26:01.339Z,18.38
2023-04-09T18:28:28.380Z,18.44
2023-04-09T18:30:55.582Z,18.25
2023-04-09T18:33:22.488Z,18.16
2023-04-09T18:35:49.441Z,18.06
2023-04-09T18:38:17.819Z,17.97
2023-04-09T18:40:45.101Z,17.83
2023-04-09T18:43:12.785Z,17.75
2023-04-09T18:45:40.618Z,17.69
2023-04-09T18:48:09.030Z,17.59
2023-04-09T18:50:36.344Z,17.61
2023-04-09T18:53:03.820Z,17.48
2023-04-09T18:55:31.021Z,17.34
2023-04-09T18:57:58.593Z,17.34
2023-04-09T19:00:25.773Z,17.27
2023-04-09T19:02:53.043Z,17.19
2023-04-09T19:05:20.416Z,17.07
2023-04-09T19:07:47.437Z,16.93
2023-04-09T19:10:14.412Z,16.84
2023-04-09T19:12:48.675Z,16.74
2023-04-09T19:15:16.244Z,16.66
2023-04-09T19:17:43.334Z,16.56
2023-04-09T19:20:10.760Z,16.48
2023-04-09T19:22:37.901Z,16.41
2023-04-09T19:25:06.457Z,16.36
2023-04-09T19:27:33.438Z,16.28
2023-04-09T19:30:01.291Z,16.18
2023-04-09T19:32:28.281Z,16.08
2023-04-09T19:34:56.022Z,16.02
2023-04-09T19:37:27.650Z,16.01
2023-04-09T19:39:55.214Z,15.95
2023-04-09T19:42:22.120Z,15.98
2023-04-09T19:44:48.999Z,15.94
2023-04-09T19:47:16.197Z,15.88
2023-04-09T19:49:43.858Z,15.81
2023-04-09T19:52:10.921Z,15.73
2023-04-09T19:54:37.931Z,15.69
2023-04-09T19:57:05.095Z,15.64
2023-04-09T19:59:36.545Z,15.57
2023-04-09T20:02:03.701Z,15.46
2023-04-09T20:04:31.189Z,15.39
2023-04-09T20:06:58.330Z,15.28
2023-04-09T20:09:27.832Z,15.18
2023-04-09T20:11:55.072Z,15.08
2023-04-09T20:14:22.101Z,14.91
2023-04-09T20:16:49.401Z,14.87
2023-04-09T20:19:16.837Z,14.76
2023-04-09T20:21:44.177Z,14.69
2023-04-09T20:24:11.618Z,14.64
2023-04-09T20:26:38.648Z,14.55
2023-04-09T20:29:05.595Z,14.47
2023-04-09T20:31:35.141Z,14.45
2023-04-09T20:34:02.545Z,14.35
2023-04-09T20:36:29.527Z,14.17
2023-04-09T20:38:56.624Z,14.11
2023-04-09T20:41:23.620Z,14.07
2023-04-09T20:43:50.580Z,14.08
2023-04-09T20:46:17.537Z,13.95
2023-04-09T20:48:44.696Z,13.93
2023-04-09T20:51:11.914Z,13.87
2023-04-09T20:54:00.024Z,13.78
2023-04-09T20:56:27.592Z,13.73
2023-04-09T20:58:54.793Z,13.67
2023-04-09T21:01:22.049Z,13.62
2023-04-09T21:03:50.273Z,13.54
2023-04-09T21:06:20.096Z,13.46
2023-04-09T21:08:47.311Z,13.40
2023-04-09T21:11:16.466Z,13.26
2023-04-09T21:13:54.032Z,13.26
2023-04-09T21:16:23.363Z,13.19
2023-04-09T21:18:50.798Z,13.13
2023-04-09T21:21:18.749Z,13.07
2023-04-09T21:23:45.918Z,13.01
2023-04-09T21:26:13.627Z,12.98
2023-04-09T21:28:41.318Z,12.92
2023-04-09T21:31:10.151Z,12.84
2023-04-09T21:33:39.236Z,12.84
2023-04-09T21:36:08.161Z,12.82
2023-04-09T21:38:36.322Z,12.75
2023-04-09T21:41:07.223Z,12.75
2023-04-09T21:43:35.536Z,12.73
2023-04-09T21:46:03.198Z,12.70
2023-04-09T21:48:30.964Z,12.68
2023-04-09T21:50:58.807Z,12.56
2023-04-09T21:53:26.266Z,12.57
2023-04-09T21:55:53.235Z,12.54
2023-04-09T21:58:20.166Z,12.50
2023-04-09T22:00:47.209Z,12.50
2023-04-09T22:03:14.316Z,12.42
2023-04-09T22:05:41.333Z,12.38
2023-04-09T22:08:08.357Z,12.35
2023-04-09T22:10:35.804Z,12.31
2023-04-09T22:13:02.808Z,12.24
2023-04-09T22:15:29.887Z,12.23
2023-04-09T22:17:57.948Z,12.21
2023-04-09T22:20:26.555Z,12.20
2023-04-09T22:22:54.279Z,12.14
2023-04-09T22:25:21.449Z,12.06
2023-04-09T22:27:52.490Z,12.02
2023-04-09T22:30:20.993Z,11.95
2023-04-09T22:32:48.062Z,12.00
2023-04-09T22:35:18.447Z,11.97
2023-04-09T22:37:47.384Z,11.92
2023-04-09T22:40:15.736Z,11.85
2023-04-09T22:42:43.261Z,11.79
2023-04-09T22:45:11.387Z,11.75
2023-04-09T22:47:39.046Z,11.70
2023-04-09T22:50:07.151Z,11.56
2023-04-09T22:52:34.153Z,11.52
2023-04-09T22:55:01.580Z,11.47
2023-04-09T22:57:28.615Z,11.47
2023-04-09T22:59:55.629Z,11.39
2023-04-09T23:02:22.698Z,11.33
2023-04-09T23:04:49.777Z,11.28
2023-04-09T23:07:16.721Z,11.24
2023-04-09T23:09:43.656Z,11.12
2023-04-09T23:12:10.683Z,11.12
2023-04-09T23:14:37.766Z,11.07
2023-04-09T23:17:04.694Z,11.02
2023-04-09T23:19:31.666Z,10.98
2023-04-09T23:21:58.639Z,10.90
2023-04-09T23:24:25.614Z,10.82
2023-04-09T23:26:52.487Z,10.73
2023-04-09T23:29:19.526Z,10.77
2023-04-09T23:31:46.585Z,10.81
2023-04-09T23:34:13.751Z,10.84
2023-04-09T23:36:40.834Z,10.81
2023-04-09T23:39:07.883Z,10.79
2023-04-09T23:41:34.894Z,10.79
2023-04-09T23:44:01.870Z,10.78
2023-04-09T23:46:28.943Z,10.77
2023-04-09T23:48:55.956Z,10.73
2023-04-09T23:51:22.927Z,10.68
2023-04-09T23:53:50.153Z,10.72
2023-04-09T23:56:17.224Z,10.67
2023-04-09T23:58:44.203Z,10.69
